Time;durP1;ratioP1;P1;durP2;ratioP2;P2;SDS_P1;SDS_P2;PMS_P1;PMS_P2;Temp;Humidity;BMP_temperature;BMP_pressure;BME280_temperature;BME280_humidity;BME280_pressure;Samples;Min_cycle;Max_cycle;Signal;HPM_P1;HPM_P2
2021/05/24 00:01:21;;;;;;;3.83;2.50;;;10.00;99.90;;;;;;5088754;28;20071;-73
2021/05/24 00:03:46;;;;;;;4.22;2.47;;;9.90;99.90;;;;;;5086808;28;20030;-74
2021/05/24 00:06:12;;;;;;;4.88;2.40;;;10.00;99.90;;;;;;5087859;28;20119;-74
2021/05/24 00:08:37;;;;;;;4.25;2.47;;;10.00;99.90;;;;;;5088966;28;20571;-74
2021/05/24 00:11:05;;;;;;;4.85;2.75;;;9.90;99.90;;;;;;5088899;28;20042;-74
2021/05/24 00:13:30;;;;;;;4.60;2.38;;;9.90;99.90;;;;;;5088586;28;20563;-74
2021/05/24 00:15:57;;;;;;;4.70;2.45;;;9.80;99.90;;;;;;5088041;28;20016;-74
2021/05/24 00:18:23;;;;;;;6.65;2.53;;;9.80;99.90;;;;;;5090053;28;20050;-74
2021/05/24 00:20:59;;;;;;;4.80;2.70;;;9.90;99.90;;;;;;5088893;28;20527;-74
2021/05/24 00:23:25;;;;;;;4.85;2.63;;;9.80;99.90;;;;;;5088363;28;20064;-74
2021/05/24 00:25:51;;;;;;;3.38;1.77;;;9.90;99.90;;;;;;5088191;28;20062;-73
2021/05/24 00:28:16;;;;;;;4.72;2.10;;;9.80;99.90;;;;;;5088388;28;20024;-74
2021/05/24 00:30:44;;;;;;;3.08;2.00;;;9.80;99.90;;;;;;5087664;28;20077;-74
2021/05/24 00:33:09;;;;;;;2.63;2.03;;;9.80;99.90;;;;;;5087443;28;20032;-74
2021/05/24 00:35:35;;;;;;;3.67;2.05;;;9.80;99.90;;;;;;5089983;28;20074;-74
2021/05/24 00:38:03;;;;;;;5.00;1.90;;;9.80;99.90;;;;;;5087746;28;20028;-74
2021/05/24 00:40:30;;;;;;;2.95;1.80;;;9.80;99.90;;;;;;5086859;28;20027;-74
2021/05/24 00:42:56;;;;;;;2.65;1.92;;;9.70;99.90;;;;;;5088573;28;20066;-74
2021/05/24 00:45:22;;;;;;;3.58;2.15;;;9.70;99.90;;;;;;5087644;28;20090;-74
2021/05/24 00:47:47;;;;;;;3.15;2.30;;;9.70;99.90;;;;;;5088055;28;20154;-74
2021/05/24 00:50:13;;;;;;;3.05;2.20;;;9.70;99.90;;;;;;5088395;28;20032;-74
2021/05/24 00:52:39;;;;;;;2.70;2.03;;;9.60;99.90;;;;;;5087567;28;20131;-74
2021/05/24 00:55:07;;;;;;;3.22;2.10;;;9.60;99.90;;;;;;5087941;28;20099;-74
2021/05/24 00:57:34;;;;;;;2.45;1.70;;;9.50;99.90;;;;;;5088517;28;20028;-74
2021/05/24 00:59:59;;;;;;;1.77;1.52;;;9.40;99.90;;;;;;5079091;28;20116;-74
2021/05/24 01:02:25;;;;;;;3.47;1.90;;;9.40;99.90;;;;;;5087823;28;20102;-74
2021/05/24 01:04:51;;;;;;;5.13;1.88;;;9.40;99.90;;;;;;5089380;28;20020;-74
2021/05/24 01:07:17;;;;;;;2.10;1.80;;;9.30;99.90;;;;;;5086774;28;20315;-74
2021/05/24 01:09:43;;;;;;;2.00;1.52;;;9.30;99.90;;;;;;5086530;28;20020;-75
2021/05/24 01:12:10;;;;;;;2.88;1.85;;;9.20;99.90;;;;;;5086158;28;20436;-74
2021/05/24 01:14:36;;;;;;;3.47;2.15;;;9.30;99.90;;;;;;5087697;28;20502;-74
2021/05/24 01:17:02;;;;;;;2.47;1.83;;;9.20;99.90;;;;;;5087459;28;20107;-74
2021/05/24 01:19:28;;;;;;;3.10;1.95;;;9.20;99.90;;;;;;5088075;28;20039;-74
2021/05/24 01:21:54;;;;;;;2.83;2.20;;;9.10;99.90;;;;;;5088683;28;20028;-74
2021/05/24 01:24:21;;;;;;;3.40;2.05;;;9.00;99.90;;;;;;5087309;28;20042;-74
2021/05/24 01:26:47;;;;;;;3.45;2.10;;;9.10;99.90;;;;;;5089533;28;20031;-74
2021/05/24 01:29:15;;;;;;;3.55;2.08;;;9.00;99.90;;;;;;5087011;28;20028;-73
2021/05/24 01:31:41;;;;;;;3.63;2.13;;;9.00;99.90;;;;;;5087915;28;20024;-73
2021/05/24 01:34:07;;;;;;;5.22;2.20;;;9.00;99.90;;;;;;5088221;28;20027;-74
2021/05/24 01:36:33;;;;;;;4.93;2.33;;;8.90;99.90;;;;;;5086654;28;20028;-74
2021/05/24 01:38:58;;;;;;;3.47;2.63;;;8.90;99.90;;;;;;5089130;28;20380;-74
2021/05/24 01:41:24;;;;;;;3.88;2.30;;;8.80;99.90;;;;;;5083585;28;20479;-73
2021/05/24 01:43:49;;;;;;;3.67;2.53;;;8.80;99.90;;;;;;5088810;28;20471;-73
2021/05/24 01:46:15;;;;;;;4.07;2.63;;;8.80;99.90;;;;;;5088440;28;20386;-73
2021/05/24 01:48:41;;;;;;;3.45;2.63;;;8.80;99.90;;;;;;5083673;28;20479;-73
2021/05/24 01:51:07;;;;;;;3.25;2.65;;;8.70;99.90;;;;;;5087488;28;20024;-73
2021/05/24 01:53:34;;;;;;;4.43;2.55;;;8.70;99.90;;;;;;5087111;28;20472;-73
2021/05/24 01:56:00;;;;;;;3.97;2.90;;;8.70;99.90;;;;;;5080840;28;20032;-73
2021/05/24 01:58:27;;;;;;;4.78;2.95;;;8.60;99.90;;;;;;5087170;28;20024;-73
2021/05/24 02:00:59;;;;;;;5.65;2.70;;;8.60;99.90;;;;;;5087056;28;20547;-73
2021/05/24 02:03:24;;;;;;;4.95;2.65;;;8.60;99.90;;;;;;5086387;28;20032;-73
2021/05/24 02:05:50;;;;;;;3.92;2.90;;;8.50;99.90;;;;;;5086271;28;20496;-73
2021/05/24 02:08:15;;;;;;;3.38;2.50;;;8.50;99.90;;;;;;5088298;28;20539;-74
2021/05/24 02:10:41;;;;;;;3.42;2.70;;;8.50;99.90;;;;;;5086500;28;20024;-74
2021/05/24 02:13:07;;;;;;;3.45;2.38;;;8.50;99.90;;;;;;5085978;28;20028;-74
2021/05/24 02:15:38;;;;;;;4.00;2.55;;;8.50;99.90;;;;;;5086460;28;20398;-74
2021/05/24 02:18:04;;;;;;;3.10;2.53;;;8.50;99.90;;;;;;5088648;28;20043;-73
2021/05/24 02:20:31;;;;;;;4.72;2.83;;;8.50;99.90;;;;;;5084960;28;20028;-74
2021/05/24 02:22:58;;;;;;;5.13;2.40;;;8.50;99.90;;;;;;5087199;28;20090;-74
2021/05/24 02:25:24;;;;;;;3.92;2.40;;;8.50;99.90;;;;;;5084763;28;20036;-74
2021/05/24 02:27:50;;;;;;;3.75;2.40;;;8.50;99.90;;;;;;5088045;28;20497;-74
2021/05/24 02:30:17;;;;;;;4.20;2.50;;;8.50;99.90;;;;;;5085211;28;20479;-73
2021/05/24 02:32:43;;;;;;;4.65;2.33;;;8.50;99.90;;;;;;5086333;28;20053;-74
2021/05/24 02:35:12;;;;;;;4.10;2.28;;;8.60;99.90;;;;;;5086143;28;20107;-73
2021/05/24 02:37:39;;;;;;;3.70;2.20;;;8.60;99.90;;;;;;5085724;28;20051;-74
2021/05/24 02:40:07;;;;;;;4.50;2.13;;;8.60;99.90;;;;;;5088166;28;20382;-74
2021/05/24 02:42:33;;;;;;;3.67;2.10;;;8.50;99.90;;;;;;5086557;28;20032;-74
2021/05/24 02:44:58;;;;;;;6.45;2.50;;;8.60;99.90;;;;;;5086871;28;20027;-74
2021/05/24 02:47:24;;;;;;;2.63;2.10;;;8.60;99.90;;;;;;5088039;28;20032;-73
2021/05/24 02:49:49;;;;;;;4.20;2.47;;;8.60;99.90;;;;;;5086466;28;20099;-74
2021/05/24 02:52:15;;;;;;;2.97;1.88;;;8.70;99.90;;;;;;5087422;28;20376;-74
2021/05/24 02:54:41;;;;;;;4.43;1.75;;;8.70;99.90;;;;;;5086263;28;20028;-74
2021/05/24 02:57:06;;;;;;;3.22;2.03;;;8.70;99.90;;;;;;5085904;28;20027;-74
2021/05/24 02:59:32;;;;;;;2.55;2.13;;;8.70;99.90;;;;;;5085802;28;20020;-74
2021/05/24 03:02:01;;;;;;;3.40;2.17;;;8.70;99.90;;;;;;5087098;28;20028;-74
2021/05/24 03:04:28;;;;;;;3.38;2.28;;;8.70;99.90;;;;;;5087960;28;20054;-74
2021/05/24 03:06:54;;;;;;;2.58;1.83;;;8.70;99.90;;;;;;5086321;28;20060;-73
2021/05/24 03:09:20;;;;;;;3.40;2.15;;;8.70;99.90;;;;;;5087081;28;20036;-74
2021/05/24 03:11:45;;;;;;;4.32;2.40;;;8.70;99.90;;;;;;5086405;28;20479;-74
2021/05/24 03:14:11;;;;;;;3.38;2.05;;;8.70;99.90;;;;;;5085774;28;20028;-73
2021/05/24 03:16:37;;;;;;;3.40;2.35;;;8.70;99.90;;;;;;5088610;28;20032;-74
2021/05/24 03:19:03;;;;;;;2.88;2.30;;;8.80;99.90;;;;;;5089350;28;20096;-74
2021/05/24 03:21:29;;;;;;;3.65;2.17;;;8.70;99.90;;;;;;5091365;28;20485;-74
2021/05/24 03:23:54;;;;;;;3.65;2.25;;;8.70;99.90;;;;;;5088193;28;20059;-74
2021/05/24 03:26:20;;;;;;;3.20;2.15;;;8.70;99.90;;;;;;5090934;28;20027;-73
2021/05/24 03:28:45;;;;;;;3.83;2.50;;;8.70;99.90;;;;;;5090736;28;20368;-74
2021/05/24 03:31:11;;;;;;;2.90;1.95;;;8.70;99.90;;;;;;5091500;28;20016;-74
2021/05/24 03:33:37;;;;;;;3.83;2.13;;;8.70;99.90;;;;;;5090844;28;20055;-74
2021/05/24 03:36:03;;;;;;;2.80;2.10;;;8.70;99.90;;;;;;5090584;28;20479;-73
2021/05/24 03:38:29;;;;;;;4.18;1.92;;;8.70;99.90;;;;;;5089717;28;20085;-74
2021/05/24 03:40:54;;;;;;;4.13;2.42;;;8.70;99.90;;;;;;5090909;28;20470;-74
2021/05/24 03:43:21;;;;;;;4.07;2.30;;;8.80;99.90;;;;;;5088957;28;20037;-74
2021/05/24 03:45:47;;;;;;;6.00;2.15;;;8.80;99.90;;;;;;5088040;28;20642;-73
2021/05/24 03:48:13;;;;;;;4.07;2.60;;;8.90;99.90;;;;;;5089754;28;20032;-74
2021/05/24 03:50:38;;;;;;;5.07;2.20;;;8.90;99.90;;;;;;5079063;28;20023;-74
2021/05/24 03:53:04;;;;;;;5.40;2.20;;;9.00;99.90;;;;;;5088370;28;20044;-74
2021/05/24 03:55:30;;;;;;;4.03;2.33;;;9.00;99.90;;;;;;5088735;28;20016;-74
2021/05/24 03:57:55;;;;;;;4.28;2.33;;;9.00;99.90;;;;;;5085955;28;20059;-73
2021/05/24 04:00:21;;;;;;;3.13;2.15;;;9.10;99.90;;;;;;5087828;28;20024;-74
2021/05/24 04:02:47;;;;;;;2.00;1.75;;;9.10;99.90;;;;;;5086773;28;20016;-73
2021/05/24 04:05:20;;;;;;;3.03;2.05;;;9.20;99.90;;;;;;5089159;28;20662;-74
2021/05/24 04:07:55;;;;;;;5.35;2.13;;;9.30;99.90;;;;;;5083229;28;20489;-74
2021/05/24 04:10:24;;;;;;;6.20;2.38;;;9.40;99.90;;;;;;5088041;28;20028;-74
2021/05/24 04:12:49;;;;;;;3.30;2.50;;;9.50;99.90;;;;;;5090568;28;20103;-74
2021/05/24 04:15:16;;;;;;;3.13;2.25;;;9.60;99.90;;;;;;5088742;28;20107;-74
2021/05/24 04:17:43;;;;;;;3.53;2.00;;;9.70;99.90;;;;;;5089891;28;20032;-74
2021/05/24 04:20:11;;;;;;;4.90;2.53;;;9.70;99.90;;;;;;5088534;28;20583;-74
2021/05/24 04:22:38;;;;;;;3.17;2.30;;;9.80;99.90;;;;;;5089113;28;20027;-74
2021/05/24 04:25:04;;;;;;;3.38;2.30;;;9.80;99.90;;;;;;5086730;28;20529;-74
2021/05/24 04:27:30;;;;;;;3.45;2.03;;;9.90;99.90;;;;;;5089574;28;20432;-74
2021/05/24 04:29:55;;;;;;;3.65;2.17;;;10.00;99.90;;;;;;5089350;28;20352;-74
2021/05/24 04:32:21;;;;;;;2.72;1.88;;;10.00;99.90;;;;;;5089582;28;20027;-74
2021/05/24 04:34:46;;;;;;;4.97;2.00;;;10.10;99.90;;;;;;5086248;28;20073;-74
2021/05/24 04:37:12;;;;;;;3.13;2.20;;;10.20;99.90;;;;;;5089213;28;20095;-74
2021/05/24 04:39:41;;;;;;;3.22;1.92;;;10.20;99.90;;;;;;5090082;28;20526;-74
2021/05/24 04:42:07;;;;;;;2.88;2.13;;;10.30;99.90;;;;;;5089831;28;20410;-73
2021/05/24 04:44:33;;;;;;;3.95;1.90;;;10.40;99.90;;;;;;5089646;28;20028;-74
2021/05/24 04:46:58;;;;;;;3.15;1.75;;;10.50;99.90;;;;;;5089924;28;20032;-74
2021/05/24 04:49:23;;;;;;;6.57;2.47;;;10.70;99.90;;;;;;5078522;28;20483;-74
2021/05/24 04:51:49;;;;;;;2.83;2.08;;;10.80;99.90;;;;;;5088965;28;20115;-74
2021/05/24 04:54:14;;;;;;;2.30;1.58;;;10.90;99.90;;;;;;5089639;28;20027;-74
2021/05/24 04:56:40;;;;;;;1.55;1.45;;;11.00;99.90;;;;;;5083778;28;20025;-74
2021/05/24 04:59:05;;;;;;;2.25;1.90;;;11.00;99.90;;;;;;5080975;28;20065;-74
2021/05/24 05:01:31;;;;;;;3.22;1.88;;;11.10;99.90;;;;;;5089329;28;20032;-74
2021/05/24 05:03:56;;;;;;;2.55;1.75;;;11.10;99.90;;;;;;5087383;28;20027;-74
2021/05/24 05:06:22;;;;;;;2.53;1.70;;;11.20;99.90;;;;;;5089337;28;20036;-73
2021/05/24 05:08:48;;;;;;;2.25;1.70;;;11.30;99.90;;;;;;5088755;28;20048;-74
2021/05/24 05:11:13;;;;;;;2.95;1.50;;;11.30;99.90;;;;;;5088474;28;20020;-74
2021/05/24 05:13:40;;;;;;;3.35;1.80;;;11.40;99.90;;;;;;5088730;28;20028;-74
2021/05/24 05:16:06;;;;;;;3.15;1.52;;;11.40;99.90;;;;;;5089127;28;20062;-74
2021/05/24 05:18:32;;;;;;;3.33;1.40;;;11.50;99.90;;;;;;5085866;28;20425;-74
2021/05/24 05:20:57;;;;;;;1.77;1.40;;;11.60;99.90;;;;;;5088622;28;20376;-73
2021/05/24 05:23:23;;;;;;;1.60;1.48;;;11.60;99.90;;;;;;5087793;28;20028;-74
2021/05/24 05:25:48;;;;;;;4.15;1.48;;;11.70;99.90;;;;;;5087746;28;20039;-74
2021/05/24 05:28:15;;;;;;;3.75;1.52;;;11.70;99.90;;;;;;5086433;28;20028;-74
2021/05/24 05:30:41;;;;;;;1.73;1.40;;;11.80;99.90;;;;;;5087694;28;20540;-74
2021/05/24 05:33:06;;;;;;;1.80;1.52;;;11.90;99.90;;;;;;5089000;28;20036;-74
2021/05/24 05:35:32;;;;;;;1.95;1.60;;;11.90;99.90;;;;;;5087450;28;20503;-74
2021/05/24 05:37:58;;;;;;;1.20;1.08;;;11.90;99.90;;;;;;5089070;28;20032;-74
2021/05/24 05:40:24;;;;;;;2.30;1.73;;;12.00;99.90;;;;;;5087495;28;20032;-74
2021/05/24 05:42:49;;;;;;;2.75;1.30;;;12.00;99.90;;;;;;5088380;28;20030;-74
2021/05/24 05:45:16;;;;;;;3.17;1.77;;;12.10;99.90;;;;;;5085981;28;20107;-74
2021/05/24 05:47:43;;;;;;;1.77;1.30;;;12.10;99.90;;;;;;5086656;28;20036;-74
2021/05/24 05:50:09;;;;;;;1.75;1.45;;;12.20;99.90;;;;;;5088542;28;20028;-74
2021/05/24 05:52:35;;;;;;;2.63;1.50;;;12.20;99.90;;;;;;5087984;28;20059;-74
2021/05/24 05:55:03;;;;;;;3.75;1.50;;;12.20;99.90;;;;;;5086730;28;20032;-73
2021/05/24 05:57:29;;;;;;;1.65;1.25;;;12.30;99.90;;;;;;5082219;28;20025;-73
2021/05/24 05:59:54;;;;;;;1.88;1.30;;;12.40;99.90;;;;;;5088120;28;20035;-73
2021/05/24 06:02:20;;;;;;;1.98;1.30;;;12.40;99.90;;;;;;5087185;28;20505;-74
2021/05/24 06:04:45;;;;;;;2.13;1.40;;;12.50;99.90;;;;;;5088139;28;20412;-73
2021/05/24 06:07:11;;;;;;;2.17;1.45;;;12.60;99.90;;;;;;5087506;28;20070;-73
2021/05/24 06:09:36;;;;;;;3.05;1.52;;;12.60;99.90;;;;;;5087602;28;20055;-74
2021/05/24 06:12:02;;;;;;;2.38;1.25;;;12.60;99.90;;;;;;5086611;28;20027;-75
2021/05/24 06:14:27;;;;;;;2.67;1.33;;;12.80;99.90;;;;;;5087936;28;20401;-72
2021/05/24 06:16:53;;;;;;;1.70;1.60;;;12.80;99.90;;;;;;5085235;28;20016;-75
2021/05/24 06:19:18;;;;;;;1.55;1.02;;;12.80;99.90;;;;;;5085383;28;20036;-72
2021/05/24 06:21:44;;;;;;;3.35;1.30;;;12.90;99.90;;;;;;5087432;28;20383;-71
2021/05/24 06:24:10;;;;;;;4.50;1.40;;;13.00;99.90;;;;;;5086725;28;20039;-71
2021/05/24 06:26:36;;;;;;;3.40;1.33;;;13.00;99.90;;;;;;5087811;28;20667;-71
2021/05/24 06:29:03;;;;;;;2.13;1.20;;;13.10;99.90;;;;;;5086887;28;20073;-71
2021/05/24 06:31:28;;;;;;;2.05;1.35;;;13.10;99.90;;;;;;5087136;28;20036;-74
2021/05/24 06:33:54;;;;;;;3.30;1.45;;;13.20;99.90;;;;;;5088453;28;20077;-72
2021/05/24 06:36:19;;;;;;;1.25;1.02;;;13.20;99.90;;;;;;5082693;28;20023;-73
2021/05/24 06:38:45;;;;;;;1.48;1.30;;;13.30;98.30;;;;;;5086486;28;20032;-71
2021/05/24 06:41:10;;;;;;;0.82;0.82;;;13.40;98.40;;;;;;5087446;28;20089;-73
2021/05/24 06:43:36;;;;;;;1.95;1.08;;;13.50;96.90;;;;;;5087387;28;20123;-71
2021/05/24 06:46:01;;;;;;;1.40;0.95;;;13.50;97.00;;;;;;5084351;28;20028;-76
2021/05/24 06:48:27;;;;;;;1.50;0.82;;;13.60;96.40;;;;;;5081963;28;20489;-76
2021/05/24 06:50:52;;;;;;;0.93;0.93;;;13.60;97.10;;;;;;5086004;28;20244;-76
2021/05/24 06:53:18;;;;;;;2.13;1.17;;;13.60;97.00;;;;;;5091769;28;20040;-75
2021/05/24 06:55:43;;;;;;;1.25;1.08;;;13.70;96.50;;;;;;5091923;28;20023;-76
2021/05/24 06:58:09;;;;;;;1.30;1.00;;;13.80;95.10;;;;;;5091854;28;20028;-76
2021/05/24 07:00:34;;;;;;;1.08;0.98;;;13.90;94.00;;;;;;5086297;28;20520;-76
2021/05/24 07:03:01;;;;;;;1.83;0.90;;;14.10;93.80;;;;;;5074751;28;20048;-76
2021/05/24 07:05:26;;;;;;;1.88;1.10;;;14.10;92.80;;;;;;5091554;28;20031;-75
2021/05/24 07:07:52;;;;;;;1.00;0.90;;;14.20;92.10;;;;;;5091340;28;20073;-76
2021/05/24 07:10:17;;;;;;;1.33;0.88;;;14.20;91.70;;;;;;5091141;28;20027;-76
2021/05/24 07:12:45;;;;;;;1.10;0.95;;;14.30;94.10;;;;;;5091182;28;20538;-76
2021/05/24 07:15:11;;;;;;;1.55;0.85;;;14.40;91.60;;;;;;5091742;28;20107;-75
2021/05/24 07:17:37;;;;;;;2.97;1.10;;;14.60;91.20;;;;;;5090817;28;20127;-76
2021/05/24 07:20:04;;;;;;;1.27;0.85;;;14.60;90.20;;;;;;5091710;28;20031;-76
2021/05/24 07:22:29;;;;;;;2.05;0.95;;;14.70;90.00;;;;;;5091112;28;20024;-76
2021/05/24 07:24:56;;;;;;;1.60;0.95;;;14.70;90.60;;;;;;5090120;28;20077;-75
2021/05/24 07:27:22;;;;;;;1.33;0.90;;;14.90;90.10;;;;;;5091372;28;20024;-76
2021/05/24 07:29:47;;;;;;;2.28;0.80;;;14.90;90.50;;;;;;5090574;28;20043;-76
2021/05/24 07:32:13;;;;;;;2.78;1.02;;;15.00;91.00;;;;;;5090440;28;20095;-76
2021/05/24 07:34:39;;;;;;;1.33;1.00;;;15.10;90.50;;;;;;5090929;28;20024;-75
2021/05/24 07:37:05;;;;;;;0.55;0.52;;;15.10;89.80;;;;;;5091176;28;20032;-76
2021/05/24 07:39:31;;;;;;;3.05;0.80;;;15.20;85.30;;;;;;5090603;28;20038;-75
2021/05/24 07:42:00;;;;;;;4.10;0.95;;;15.30;85.10;;;;;;5091240;28;20036;-76
2021/05/24 07:44:26;;;;;;;1.00;0.90;;;15.40;86.60;;;;;;5090773;28;20492;-76
2021/05/24 07:46:52;;;;;;;1.20;0.85;;;15.40;89.10;;;;;;5090593;28;20391;-76
2021/05/24 07:49:18;;;;;;;1.08;0.95;;;15.50;86.00;;;;;;5090292;28;20032;-75
2021/05/24 07:51:43;;;;;;;1.33;0.73;;;15.50;86.50;;;;;;5090419;28;20028;-75
2021/05/24 07:54:09;;;;;;;3.45;1.05;;;15.70;83.40;;;;;;5090906;28;20027;-75
2021/05/24 07:56:34;;;;;;;1.75;0.80;;;15.80;79.90;;;;;;5089498;28;20027;-76
2021/05/24 07:59:00;;;;;;;2.17;1.05;;;15.90;89.60;;;;;;5090450;28;20035;-76
2021/05/24 08:01:25;;;;;;;1.63;0.90;;;16.00;79.40;;;;;;5090603;28;20024;-76
2021/05/24 08:03:50;;;;;;;0.73;0.70;;;16.00;80.20;;;;;;5089566;28;20024;-75
2021/05/24 08:06:16;;;;;;;1.10;0.68;;;16.10;80.90;;;;;;5089934;28;20032;-76
2021/05/24 08:08:42;;;;;;;1.60;0.75;;;16.20;83.30;;;;;;5089515;28;20605;-75
2021/05/24 08:11:08;;;;;;;2.17;0.80;;;16.30;79.10;;;;;;5090175;28;20675;-75
2021/05/24 08:13:33;;;;;;;0.95;0.70;;;16.40;79.40;;;;;;5086466;28;20031;-78
2021/05/24 08:15:59;;;;;;;1.27;0.88;;;16.40;75.50;;;;;;5089129;28;20044;-79
2021/05/24 08:18:24;;;;;;;1.35;0.70;;;16.50;75.60;;;;;;5089047;28;20435;-74
2021/05/24 08:20:50;;;;;;;1.75;1.20;;;16.60;74.60;;;;;;5088952;28;20031;-76
2021/05/24 08:23:16;;;;;;;1.23;1.02;;;16.60;72.20;;;;;;5089454;28;20518;-77
2021/05/24 08:25:41;;;;;;;0.50;0.50;;;16.60;71.60;;;;;;5089274;28;20604;-78
2021/05/24 08:28:07;;;;;;;1.60;1.00;;;16.80;83.70;;;;;;5090156;28;20028;-77
2021/05/24 08:30:34;;;;;;;0.88;0.75;;;16.90;77.00;;;;;;5088610;28;20024;-77
2021/05/24 08:33:00;;;;;;;0.98;0.80;;;17.10;73.50;;;;;;5087812;28;20111;-77
2021/05/24 08:35:25;;;;;;;0.50;0.50;;;17.20;74.00;;;;;;5089657;28;20793;-79
2021/05/24 08:37:51;;;;;;;0.93;0.80;;;17.20;69.90;;;;;;5089076;28;20108;-77
2021/05/24 08:40:18;;;;;;;3.63;0.73;;;17.30;74.20;;;;;;5090328;28;20032;-78
2021/05/24 08:42:47;;;;;;;0.80;0.70;;;17.30;76.20;;;;;;5089394;28;20031;-78
2021/05/24 08:45:13;;;;;;;0.73;0.70;;;17.40;70.40;;;;;;5088954;28;20116;-76
2021/05/24 08:47:39;;;;;;;2.72;1.00;;;17.50;72.30;;;;;;5087681;28;20106;-78
2021/05/24 08:50:06;;;;;;;0.75;0.63;;;17.50;71.40;;;;;;5085218;28;20035;-81
2021/05/24 08:52:32;;;;;;;0.70;0.70;;;17.60;69.40;;;;;;5088763;28;20051;-78
2021/05/24 08:54:58;;;;;;;0.60;0.60;;;17.80;67.80;;;;;;5087621;28;20023;-78
2021/05/24 08:57:23;;;;;;;0.90;0.50;;;17.90;68.10;;;;;;5085199;28;20111;-78
2021/05/24 08:59:50;;;;;;;0.68;0.68;;;18.10;63.80;;;;;;5089472;28;20093;-82
2021/05/24 09:02:15;;;;;;;5.55;1.42;;;18.10;65.90;;;;;;5088686;28;20094;-82
2021/05/24 09:04:47;;;;;;;2.05;0.63;;;18.10;65.20;;;;;;5088648;28;20040;-82
2021/05/24 09:07:13;;;;;;;0.63;0.63;;;18.10;63.50;;;;;;5089144;28;20560;-80
2021/05/24 09:09:39;;;;;;;1.40;0.88;;;18.10;61.90;;;;;;5089039;28;20135;-80
2021/05/24 09:12:20;;;;;;;2.30;0.80;;;18.00;60.20;;;;;;5088585;28;20111;-80
2021/05/24 09:14:55;;;;;;;1.53;0.60;;;17.90;62.00;;;;;;5088548;28;20024;-76
2021/05/24 09:17:21;;;;;;;0.57;0.57;;;17.80;61.50;;;;;;5088687;28;20088;-75
2021/05/24 09:19:46;;;;;;;1.10;0.60;;;17.70;62.70;;;;;;5089583;28;20028;-75
2021/05/24 09:22:12;;;;;;;1.10;0.50;;;17.70;60.70;;;;;;5088236;28;20118;-75
2021/05/24 09:24:40;;;;;;;0.32;0.32;;;17.70;61.20;;;;;;5087970;28;20083;-76
2021/05/24 09:27:22;;;;;;;2.33;0.50;;;17.70;60.90;;;;;;5088327;28;20039;-76
2021/05/24 09:29:48;;;;;;;0.60;0.55;;;17.80;59.60;;;;;;5089269;28;20056;-76
2021/05/24 09:32:18;;;;;;;1.55;0.52;;;18.00;58.40;;;;;;5088239;28;20118;-76
2021/05/24 09:34:45;;;;;;;0.70;0.52;;;18.10;58.90;;;;;;5081909;28;20035;-76
2021/05/24 09:37:11;;;;;;;2.25;0.70;;;18.20;59.40;;;;;;5087361;28;20028;-76
2021/05/24 09:39:37;;;;;;;0.63;0.60;;;18.30;58.90;;;;;;5088904;28;20024;-76
2021/05/24 09:42:11;;;;;;;2.35;0.68;;;18.40;57.00;;;;;;5087259;28;20023;-76
2021/05/24 09:44:53;;;;;;;2.45;1.08;;;18.50;57.60;;;;;;5087862;28;20450;-76
2021/05/24 09:47:31;;;;;;;;;;;18.50;64.50;;;;;;5086164;28;20032;-76
2021/05/24 09:50:06;;;;;;;1.38;0.90;;;18.60;55.20;;;;;;5088577;28;19911;-78
2021/05/24 09:52:36;;;;;;;3.20;0.95;;;18.70;62.30;;;;;;5087074;28;20494;-78
2021/05/24 09:55:27;;;;;;;1.42;0.60;;;19.00;61.60;;;;;;5088031;28;20032;-78
2021/05/24 09:57:55;;;;;;;2.83;0.70;;;19.10;54.00;;;;;;5086335;28;20016;-78
2021/05/24 10:00:28;;;;;;;3.40;1.10;;;19.10;56.70;;;;;;5088194;28;20121;-78
2021/05/24 10:02:55;;;;;;;0.90;0.40;;;19.30;60.80;;;;;;5088194;28;20024;-77
2021/05/24 10:05:23;;;;;;;0.77;0.70;;;19.40;52.00;;;;;;5087041;28;20254;-78
2021/05/24 10:07:48;;;;;;;0.50;0.50;;;19.30;53.00;;;;;;5087706;28;20038;-78
2021/05/24 10:10:14;;;;;;;0.38;0.38;;;19.30;52.80;;;;;;5088842;28;20028;-78
2021/05/24 10:12:39;;;;;;;2.65;0.98;;;19.20;54.30;;;;;;5086277;28;20063;-78
2021/05/24 10:15:07;;;;;;;0.60;0.50;;;19.10;56.30;;;;;;5087844;28;20421;-78
2021/05/24 10:17:34;;;;;;;1.83;0.60;;;19.20;54.70;;;;;;5086376;28;20058;-78
2021/05/24 10:19:59;;;;;;;1.85;0.73;;;19.20;53.90;;;;;;5087982;28;20503;-79
2021/05/24 10:22:25;;;;;;;1.75;0.60;;;19.30;57.10;;;;;;5087001;28;20078;-81
2021/05/24 10:24:52;;;;;;;1.63;1.00;;;19.20;54.30;;;;;;5087531;28;20054;-76
2021/05/24 10:27:17;;;;;;;3.67;0.88;;;19.10;55.20;;;;;;5085879;28;20564;-85
2021/05/24 10:29:43;;;;;;;0.85;0.60;;;19.00;56.00;;;;;;5087469;28;20475;-78
2021/05/24 10:32:09;;;;;;;1.42;0.63;;;18.90;54.30;;;;;;5086795;28;20028;-81
2021/05/24 10:34:37;;;;;;;1.40;0.80;;;19.00;54.50;;;;;;5087437;28;20490;-77
2021/05/24 10:37:08;;;;;;;1.10;0.65;;;19.00;52.10;;;;;;5085559;28;20028;-79
2021/05/24 10:39:53;;;;;;;0.63;0.60;;;19.20;54.10;;;;;;5084106;28;20024;-76
2021/05/24 10:42:34;;;;;;;1.27;0.80;;;19.50;53.50;;;;;;5082167;28;20052;-74
2021/05/24 10:45:16;;;;;;;0.50;0.50;;;19.60;52.30;;;;;;5082656;28;20035;-79
2021/05/24 10:47:59;;;;;;;1.10;0.70;;;19.60;53.10;;;;;;5084143;28;20036;-82
2021/05/24 10:50:28;;;;;;;0.85;0.68;;;19.60;54.90;;;;;;5086400;28;20021;-76
2021/05/24 10:53:23;;;;;;;1.77;0.50;;;19.80;57.10;;;;;;5088079;28;20127;-78
2021/05/24 10:55:50;;;;;;;1.10;0.50;;;20.10;53.70;;;;;;5085772;28;20048;-78
2021/05/24 10:58:17;;;;;;;0.43;0.43;;;20.20;51.60;;;;;;5090719;28;20502;-77
2021/05/24 11:00:59;;;;;;;0.50;0.50;;;20.10;50.40;;;;;;5087608;28;20471;-76
2021/05/24 11:03:28;;;;;;;2.20;0.57;;;20.00;53.50;;;;;;5087889;28;20024;-84
2021/05/24 11:06:15;;;;;;;0.50;0.50;;;20.00;51.20;;;;;;5086352;28;20032;-77
2021/05/24 11:08:50;;;;;;;0.73;0.65;;;20.10;51.40;;;;;;5086500;28;20035;-75
2021/05/24 11:11:26;;;;;;;0.60;0.60;;;20.20;51.80;;;;;;5086818;28;20054;-76
2021/05/24 11:14:06;;;;;;;5.28;0.70;;;20.50;52.00;;;;;;5086982;28;20031;-79
2021/05/24 11:16:33;;;;;;;3.55;1.42;;;20.90;48.60;;;;;;5082957;28;20029;-75
2021/05/24 11:19:16;;;;;;;1.90;0.60;;;21.10;48.20;;;;;;5087227;28;20064;-76
2021/05/24 11:21:53;;;;;;;3.80;0.90;;;21.30;48.40;;;;;;5086480;28;20052;-75
2021/05/24 11:24:36;;;;;;;1.60;0.70;;;21.60;49.10;;;;;;5086987;28;20035;-75
2021/05/24 11:27:15;;;;;;;2.03;0.70;;;21.90;46.60;;;;;;5080768;28;20028;-76
2021/05/24 11:29:43;;;;;;;0.90;0.70;;;22.30;46.00;;;;;;5085696;28;20028;-77
2021/05/24 11:32:20;;;;;;;0.93;0.50;;;22.40;43.90;;;;;;5087273;28;20053;-73
2021/05/24 11:34:46;;;;;;;0.40;0.40;;;22.60;45.50;;;;;;5087443;28;20103;-77
2021/05/24 11:37:11;;;;;;;0.57;0.43;;;23.00;45.80;;;;;;5086156;28;20561;-76
2021/05/24 11:39:48;;;;;;;2.50;0.47;;;23.40;43.60;;;;;;5090341;28;20028;-73
2021/05/24 11:42:24;;;;;;;0.55;0.50;;;23.60;41.40;;;;;;5091190;28;20490;-76
2021/05/24 11:44:50;;;;;;;0.68;0.50;;;23.60;42.50;;;;;;5090754;28;20071;-76
2021/05/24 11:47:19;;;;;;;0.40;0.40;;;23.90;42.90;;;;;;5090708;28;20099;-76
2021/05/24 11:49:48;;;;;;;0.77;0.60;;;23.90;42.10;;;;;;5089667;28;20128;-76
2021/05/24 11:52:17;;;;;;;1.23;0.70;;;23.50;42.20;;;;;;5089729;28;20152;-76
2021/05/24 11:54:48;;;;;;;6.22;0.40;;;23.60;43.20;;;;;;5090396;28;20024;-78
2021/05/24 11:57:14;;;;;;;1.77;0.93;;;24.40;44.90;;;;;;5087654;28;20107;-79
2021/05/24 11:59:41;;;;;;;2.00;0.77;;;25.30;43.30;;;;;;5089332;28;20531;-72
2021/05/24 12:02:08;;;;;;;1.63;0.60;;;26.00;38.70;;;;;;5090440;28;20072;-81
2021/05/24 12:04:37;;;;;;;0.60;0.60;;;26.40;38.50;;;;;;5085951;28;20016;-81
2021/05/24 12:07:05;;;;;;;4.13;0.60;;;26.90;37.60;;;;;;5090433;28;20044;-82
2021/05/24 12:09:48;;;;;;;1.65;0.60;;;27.10;36.50;;;;;;5090808;28;20028;-82
2021/05/24 12:12:14;;;;;;;0.43;0.43;;;26.20;39.80;;;;;;5089953;28;20047;-83
2021/05/24 12:14:43;;;;;;;1.77;0.68;;;25.80;38.60;;;;;;5090092;28;20024;-82
2021/05/24 12:17:16;;;;;;;0.40;0.40;;;25.40;39.80;;;;;;5089555;28;20023;-76
2021/05/24 12:19:42;;;;;;;0.68;0.50;;;25.10;42.60;;;;;;5080531;28;20043;-76
2021/05/24 12:22:12;;;;;;;0.95;0.50;;;26.10;42.20;;;;;;5089553;28;20032;-77
2021/05/24 12:24:43;;;;;;;0.70;0.70;;;26.90;39.40;;;;;;5088635;28;20100;-77
2021/05/24 12:27:09;;;;;;;;;;;26.70;37.50;;;;;;5090697;28;20398;-76
2021/05/24 12:29:53;;;;;;;0.80;0.52;;;26.20;36.90;;;;;;5089251;28;20452;-76
2021/05/24 12:32:34;;;;;;;0.90;0.70;;;25.40;39.80;;;;;;5089099;28;20024;-76
2021/05/24 12:35:05;;;;;;;0.77;0.40;;;24.80;40.30;;;;;;5088720;28;20040;-78
2021/05/24 12:37:31;;;;;;;0.60;0.60;;;24.70;40.40;;;;;;5090337;28;20024;-76
2021/05/24 12:39:57;;;;;;;2.53;0.75;;;25.60;39.30;;;;;;5089023;28;20510;-76
2021/05/24 12:42:23;;;;;;;2.45;0.77;;;27.20;39.20;;;;;;5088564;28;20537;-77
2021/05/24 12:44:49;;;;;;;1.27;0.55;;;28.20;37.10;;;;;;5088851;28;20110;-76
2021/05/24 12:47:21;;;;;;;0.93;0.52;;;28.30;37.10;;;;;;5088702;28;20028;-75
2021/05/24 12:49:50;;;;;;;2.25;1.42;;;27.50;36.60;;;;;;5085095;28;20015;-74
2021/05/24 12:52:16;;;;;;;1.48;0.50;;;26.70;36.70;;;;;;5088841;28;20051;-84